createdAt,value
2023-05-05T00:02:05.001Z,92.50
2023-05-05T00:04:37.326Z,91.70
2023-05-05T00:07:08.040Z,92.60
2023-05-05T00:09:38.720Z,91.80
2023-05-05T00:12:09.966Z,91.50
2023-05-05T00:14:41.168Z,92.10
2023-05-05T00:17:12.314Z,91.60
2023-05-05T00:19:43.593Z,91.30
2023-05-05T00:22:14.431Z,91.30
2023-05-05T00:24:45.058Z,91.00
2023-05-05T00:27:15.308Z,90.90
2023-05-05T00:29:46.036Z,90.90
2023-05-05T00:32:16.704Z,90.50
2023-05-05T00:34:47.295Z,91.00
2023-05-05T00:37:17.914Z,90.40
2023-05-05T00:39:49.148Z,89.40
2023-05-05T00:42:20.071Z,89.00
2023-05-05T00:44:50.986Z,88.00
2023-05-05T00:47:22.188Z,88.40
2023-05-05T00:49:53.145Z,88.60
2023-05-05T00:52:24.223Z,87.80
2023-05-05T00:54:54.593Z,88.30
2023-05-05T00:57:25.511Z,87.30
2023-05-05T00:59:57.482Z,86.10
2023-05-05T01:02:28.451Z,83.60
2023-05-05T01:05:00.494Z,83.00
2023-05-05T01:07:45.955Z,82.60
2023-05-05T01:10:45.534Z,80.30
2023-05-05T01:13:58.364Z,79.20
2023-05-05T01:16:32.643Z,79.80
2023-05-05T01:19:30.658Z,75.50
2023-05-05T01:22:04.937Z,77.20
2023-05-05T01:24:48.826Z,72.40
2023-05-05T01:27:33.589Z,69.90
2023-05-05T01:30:41.501Z,68.80
2023-05-05T01:33:15.569Z,69.00
2023-05-05T01:35:52.624Z,69.00
2023-05-05T01:38:35.007Z,67.20
2023-05-05T01:41:14.572Z,66.50
2023-05-05T01:43:48.408Z,67.10
2023-05-05T01:46:20.614Z,66.80
2023-05-05T01:48:53.605Z,63.70
2023-05-05T01:51:27.235Z,62.50
2023-05-05T01:54:01.688Z,63.80
2023-05-05T01:56:34.242Z,64.60
2023-05-05T01:59:06.024Z,61.00
2023-05-05T02:01:40.850Z,62.10
2023-05-05T02:04:12.812Z,62.00
2023-05-05T02:06:49.671Z,62.00
2023-05-05T02:13:05.240Z,61.50
2023-05-05T02:15:37.771Z,60.40
2023-05-05T02:18:14.251Z,62.60
2023-05-05T02:20:45.142Z,62.00
2023-05-05T02:23:17.757Z,62.80
2023-05-05T02:25:55.695Z,61.50
2023-05-05T02:28:42.861Z,61.70
2023-05-05T02:31:15.381Z,64.60
2023-05-05T02:33:50.208Z,64.20
2023-05-05T02:36:26.443Z,63.80
2023-05-05T02:39:01.897Z,63.00
2023-05-05T02:41:37.009Z,61.80
2023-05-05T02:44:09.813Z,62.40
2023-05-05T02:46:42.083Z,61.30
2023-05-05T02:49:12.886Z,61.50
2023-05-05T02:51:43.932Z,60.10
2023-05-05T02:54:14.709Z,58.60
2023-05-05T02:56:55.729Z,60.20
2023-05-05T02:59:29.164Z,61.10
2023-05-05T03:02:17.597Z,61.30
2023-05-05T03:05:20.023Z,61.10
2023-05-05T03:07:57.227Z,62.30
2023-05-05T03:10:34.529Z,62.00
2023-05-05T03:13:12.105Z,62.90
2023-05-05T03:15:54.294Z,61.60
2023-05-05T03:18:26.941Z,61.80
2023-05-05T03:20:58.375Z,61.40
2023-05-05T03:23:30.092Z,60.10
2023-05-05T03:26:00.654Z,61.00
2023-05-05T03:28:31.268Z,60.20
2023-05-05T03:31:02.277Z,61.30
2023-05-05T03:33:33.021Z,60.80
2023-05-05T03:36:05.192Z,60.10
2023-05-05T03:38:36.753Z,61.50
2023-05-05T03:41:07.437Z,60.80
2023-05-05T03:43:38.680Z,62.20
2023-05-05T03:46:09.386Z,61.90
2023-05-05T03:48:40.166Z,61.60
2023-05-05T03:51:11.646Z,61.50
2023-05-05T03:53:42.009Z,60.40
2023-05-05T03:56:13.326Z,60.40
2023-05-05T03:58:44.388Z,61.70
2023-05-05T04:01:14.982Z,62.50
2023-05-05T04:03:46.954Z,61.90
2023-05-05T04:06:18.143Z,62.90
2023-05-05T04:08:48.821Z,61.50
2023-05-05T04:11:19.500Z,62.60
2023-05-05T04:13:53.953Z,64.00
2023-05-05T04:16:25.249Z,63.90
2023-05-05T04:18:56.945Z,62.40
2023-05-05T04:21:28.122Z,63.20
2023-05-05T04:23:59.999Z,62.20
2023-05-05T04:26:30.789Z,63.40
2023-05-05T04:29:01.724Z,63.30
2023-05-05T04:31:33.944Z,63.80
2023-05-05T04:34:04.632Z,62.90
2023-05-05T04:36:36.110Z,63.90
2023-05-05T04:39:09.136Z,64.50
2023-05-05T04:41:39.810Z,63.40
2023-05-05T04:44:11.370Z,63.30
2023-05-05T04:46:43.112Z,64.20
2023-05-05T04:49:14.014Z,63.50
2023-05-05T04:51:46.951Z,63.70
2023-05-05T04:54:17.818Z,63.90
2023-05-05T04:56:50.696Z,64.70
2023-05-05T04:59:21.688Z,63.70
2023-05-05T05:01:52.383Z,65.20
2023-05-05T05:04:24.746Z,64.80
2023-05-05T05:06:57.506Z,65.20
2023-05-05T05:09:29.937Z,65.50
2023-05-05T05:12:06.966Z,66.00
2023-05-05T05:14:41.583Z,66.60
2023-05-05T05:17:12.475Z,66.90
2023-05-05T05:19:43.497Z,67.30
2023-05-05T05:22:14.552Z,67.00
2023-05-05T05:24:46.183Z,67.20
2023-05-05T05:27:17.063Z,68.80
2023-05-05T05:29:47.630Z,68.80
2023-05-05T05:32:18.484Z,67.90
2023-05-05T05:34:49.985Z,68.30
2023-05-05T05:37:20.619Z,68.60
2023-05-05T05:39:58.999Z,69.40
2023-05-05T05:42:29.671Z,68.90
2023-05-05T05:45:03.128Z,69.70
2023-05-05T05:47:33.903Z,70.20
2023-05-05T05:50:07.150Z,70.10
2023-05-05T05:52:38.324Z,69.50
2023-05-05T05:55:10.017Z,70.00
2023-05-05T05:57:40.871Z,69.60
2023-05-05T06:00:11.991Z,69.70
2023-05-05T06:02:44.237Z,69.90
2023-05-05T06:05:15.485Z,70.50
2023-05-05T06:07:46.509Z,69.90
2023-05-05T06:10:27.505Z,70.80
2023-05-05T06:13:01.174Z,71.20
2023-05-05T06:15:32.259Z,72.30
2023-05-05T06:18:04.416Z,72.30
2023-05-05T06:20:35.878Z,72.30
2023-05-05T06:23:07.630Z,72.80
2023-05-05T06:25:39.639Z,73.40
2023-05-05T06:28:10.453Z,73.50
2023-05-05T06:30:41.288Z,74.20
2023-05-05T06:33:12.128Z,74.40
2023-05-05T06:35:43.288Z,75.00
2023-05-05T06:41:01.668Z,75.30
2023-05-05T06:43:33.070Z,75.90
2023-05-05T06:46:03.777Z,75.90
2023-05-05T06:48:36.332Z,76.40
2023-05-05T06:51:07.177Z,76.40
2023-05-05T06:53:37.868Z,76.60
2023-05-05T06:56:08.757Z,76.90
2023-05-05T06:58:39.550Z,76.80
2023-05-05T07:01:10.559Z,78.50
2023-05-05T07:03:41.452Z,78.90
2023-05-05T07:06:12.078Z,78.70
2023-05-05T07:08:43.715Z,79.80
2023-05-05T07:11:14.353Z,78.80
2023-05-05T07:13:45.826Z,79.20
2023-05-05T07:16:16.746Z,79.80
2023-05-05T07:18:48.142Z,79.90
2023-05-05T07:21:20.361Z,80.20
2023-05-05T07:23:54.100Z,80.40
2023-05-05T07:26:24.846Z,80.30
2023-05-05T07:28:57.476Z,80.50
2023-05-05T07:31:40.763Z,80.60
2023-05-05T07:34:11.453Z,81.10
2023-05-05T07:36:45.795Z,81.40
2023-05-05T07:39:19.053Z,81.20
2023-05-05T07:41:49.908Z,81.40
2023-05-05T07:44:21.051Z,81.60
2023-05-05T07:46:55.918Z,81.80
2023-05-05T07:49:26.652Z,82.30
2023-05-05T07:51:57.539Z,81.90
2023-05-05T07:54:29.313Z,82.10
2023-05-05T07:57:00.232Z,81.60
2023-05-05T07:59:31.020Z,82.20
2023-05-05T08:02:04.448Z,82.50
2023-05-05T08:04:35.276Z,82.40
2023-05-05T08:07:08.105Z,82.80
2023-05-05T08:09:42.178Z,83.00
2023-05-05T08:12:15.239Z,82.70
2023-05-05T08:14:47.058Z,82.70
2023-05-05T08:17:18.797Z,83.50
2023-05-05T08:19:49.974Z,83.70
2023-05-05T08:22:24.659Z,83.90
2023-05-05T08:24:55.678Z,84.50
2023-05-05T08:27:26.608Z,83.80
2023-05-05T08:29:58.075Z,83.50
2023-05-05T08:32:29.908Z,83.70
2023-05-05T08:35:01.828Z,85.00
2023-05-05T08:37:34.414Z,85.30
2023-05-05T08:40:06.910Z,85.80
2023-05-05T08:42:39.455Z,85.20
2023-05-05T08:45:14.578Z,85.00
2023-05-05T08:47:47.052Z,85.70
2023-05-05T08:50:19.817Z,85.40
2023-05-05T08:52:56.308Z,86.10
2023-05-05T08:55:29.998Z,86.00
2023-05-05T08:58:06.516Z,85.90
2023-05-05T09:00:39.478Z,86.80
2023-05-05T09:03:16.212Z,86.80
2023-05-05T09:05:49.228Z,86.90
2023-05-05T09:08:31.882Z,86.90
2023-05-05T09:11:04.502Z,86.40
2023-05-05T09:16:19.664Z,86.90
2023-05-05T09:18:51.556Z,86.60
2023-05-05T09:21:23.990Z,86.00
2023-05-05T09:24:13.996Z,86.60
2023-05-05T09:26:52.016Z,86.30
2023-05-05T09:29:26.699Z,86.60
2023-05-05T09:32:11.334Z,86.10
2023-05-05T09:34:43.866Z,85.80
2023-05-05T09:37:14.675Z,85.60
2023-05-05T09:39:58.738Z,85.50
2023-05-05T09:42:29.966Z,86.00
2023-05-05T09:45:02.153Z,86.30
2023-05-05T09:47:40.236Z,86.70
2023-05-05T09:50:14.639Z,86.80
2023-05-05T09:52:48.082Z,88.30
2023-05-05T09:55:22.087Z,88.10
2023-05-05T09:57:53.180Z,88.30
2023-05-05T10:00:24.195Z,88.20
2023-05-05T10:03:05.991Z,88.30
2023-05-05T10:05:50.611Z,87.60
2023-05-05T10:08:24.008Z,87.80
2023-05-05T10:11:02.493Z,87.90
2023-05-05T10:13:36.567Z,88.20
2023-05-05T10:16:11.413Z,88.90
2023-05-05T10:18:48.174Z,88.40
2023-05-05T10:21:23.588Z,88.10
2023-05-05T10:24:09.923Z,88.00
2023-05-05T10:26:44.884Z,88.30
2023-05-05T10:29:31.472Z,88.10
2023-05-05T10:32:53.492Z,88.40
2023-05-05T10:35:31.092Z,88.70
2023-05-05T10:38:02.723Z,88.90
2023-05-05T10:40:35.107Z,89.30
2023-05-05T10:43:09.630Z,88.40
2023-05-05T10:45:43.623Z,88.30
2023-05-05T10:48:28.441Z,88.30
2023-05-05T10:51:35.947Z,89.20
2023-05-05T10:54:32.091Z,89.30
2023-05-05T10:57:07.477Z,89.30
2023-05-05T10:59:46.580Z,89.10
2023-05-05T11:02:30.377Z,88.60
2023-05-05T11:05:16.798Z,88.10
2023-05-05T11:07:50.283Z,88.00
2023-05-05T11:10:26.690Z,88.50
2023-05-05T11:13:03.462Z,89.10
2023-05-05T11:15:36.218Z,89.50
2023-05-05T11:18:08.997Z,89.80
2023-05-05T11:20:44.552Z,90.00
2023-05-05T11:23:16.789Z,89.80
2023-05-05T11:25:48.910Z,90.00
2023-05-05T11:28:25.435Z,90.00
2023-05-05T11:30:59.797Z,90.10
2023-05-05T11:33:41.678Z,90.40
2023-05-05T11:36:14.164Z,90.50
2023-05-05T11:38:44.967Z,90.80
2023-05-05T11:41:34.967Z,90.30
2023-05-05T11:44:19.830Z,90.30
2023-05-05T11:46:57.407Z,90.00
2023-05-05T11:49:33.908Z,90.00
2023-05-05T11:52:06.736Z,89.40
2023-05-05T11:54:51.414Z,89.30
2023-05-05T11:57:29.595Z,88.40
2023-05-05T12:00:00.730Z,88.70
2023-05-05T12:02:34.533Z,88.70
2023-05-05T12:05:05.789Z,89.10
2023-05-05T12:07:36.998Z,89.40
2023-05-05T12:10:08.519Z,90.20
2023-05-05T12:12:42.088Z,90.20
2023-05-05T12:15:13.103Z,90.10
2023-05-05T12:17:47.855Z,90.00
2023-05-05T12:20:19.444Z,91.10
2023-05-05T12:22:50.745Z,90.60
2023-05-05T12:25:21.689Z,90.50
2023-05-05T12:28:01.041Z,90.40
2023-05-05T12:30:31.658Z,90.30
2023-05-05T12:33:11.724Z,90.50
2023-05-05T12:35:43.784Z,90.80
2023-05-05T12:38:14.895Z,90.90
2023-05-05T12:40:51.659Z,91.00
2023-05-05T12:43:33.169Z,90.80
2023-05-05T12:46:14.071Z,90.80
2023-05-05T12:48:48.738Z,90.70
2023-05-05T12:51:22.894Z,90.80
2023-05-05T12:54:05.442Z,90.70
2023-05-05T12:56:44.370Z,90.80
2023-05-05T12:59:25.250Z,90.80
2023-05-05T13:01:57.354Z,91.20
2023-05-05T13:04:29.104Z,91.00
2023-05-05T13:07:17.082Z,91.20
2023-05-05T13:09:48.622Z,91.70
2023-05-05T13:12:23.321Z,91.90
2023-05-05T13:14:55.372Z,92.00
2023-05-05T13:17:25.646Z,91.50
2023-05-05T13:19:55.823Z,91.20
2023-05-05T13:22:26.229Z,91.10
2023-05-05T13:24:56.837Z,90.90
2023-05-05T13:27:27.092Z,90.90
2023-05-05T13:29:57.939Z,90.90
2023-05-05T13:32:28.397Z,90.90
2023-05-05T13:34:59.561Z,91.10
2023-05-05T13:37:29.745Z,91.30
2023-05-05T13:40:01.951Z,91.60
2023-05-05T13:42:33.010Z,91.60
2023-05-05T13:45:03.268Z,91.50
2023-05-05T13:47:34.182Z,91.60
2023-05-05T13:50:04.530Z,91.70
2023-05-05T13:52:34.941Z,91.20
2023-05-05T13:55:08.155Z,91.40
2023-05-05T13:57:38.922Z,91.30
2023-05-05T14:00:10.883Z,91.00
2023-05-05T14:02:41.427Z,91.10
2023-05-05T14:05:13.397Z,91.30
2023-05-05T14:07:44.188Z,91.50
2023-05-05T14:10:14.587Z,91.70
2023-05-05T14:12:44.847Z,91.50
2023-05-05T14:15:15.739Z,92.10
2023-05-05T14:17:45.961Z,91.60
2023-05-05T14:20:16.343Z,91.70
2023-05-05T14:22:48.832Z,92.40
2023-05-05T14:25:19.844Z,91.80
2023-05-05T14:27:50.589Z,91.80
2023-05-05T14:30:20.826Z,91.80
2023-05-05T14:32:51.079Z,92.00
2023-05-05T14:35:21.489Z,93.10
2023-05-05T14:37:51.723Z,92.60
2023-05-05T14:40:24.705Z,92.30
2023-05-05T14:42:56.143Z,91.80
2023-05-05T14:45:26.818Z,92.00
2023-05-05T14:47:57.147Z,92.50
2023-05-05T14:50:27.487Z,92.60
2023-05-05T14:52:57.993Z,91.90
2023-05-05T14:55:28.341Z,92.20
2023-05-05T14:57:58.616Z,94.10
2023-05-05T15:00:29.519Z,92.70
2023-05-05T15:02:59.867Z,92.20
2023-05-05T15:05:30.615Z,92.70
2023-05-05T15:08:02.496Z,92.10
2023-05-05T15:10:32.777Z,92.60
2023-05-05T15:13:03.488Z,92.70
2023-05-05T15:15:33.738Z,92.60
2023-05-05T15:18:05.558Z,92.90
2023-05-05T15:20:35.836Z,92.30
2023-05-05T15:23:06.494Z,92.70
2023-05-05T15:25:40.413Z,92.90
2023-05-05T15:28:11.051Z,92.40
2023-05-05T15:30:41.477Z,92.40
2023-05-05T15:33:11.778Z,92.90
2023-05-05T15:35:42.181Z,92.30
2023-05-05T15:38:13.323Z,92.30
2023-05-05T15:40:50.785Z,92.10
2023-05-05T15:43:21.122Z,92.20
2023-05-05T15:45:51.310Z,92.30
2023-05-05T15:48:21.509Z,92.30
2023-05-05T15:50:51.911Z,92.20
2023-05-05T15:53:24.933Z,92.90
2023-05-05T15:55:55.332Z,91.90
2023-05-05T15:58:26.145Z,93.00
2023-05-05T16:00:57.121Z,92.20
2023-05-05T16:03:29.959Z,91.80
2023-05-05T16:06:00.934Z,91.90
2023-05-05T16:08:34.026Z,91.90
2023-05-05T16:11:04.660Z,93.20
2023-05-05T16:13:34.950Z,92.70
2023-05-05T16:16:05.224Z,93.10
2023-05-05T16:18:35.752Z,91.90
2023-05-05T16:21:06.125Z,92.50
2023-05-05T16:23:36.549Z,92.80
2023-05-05T16:26:09.642Z,92.40
2023-05-05T16:28:41.824Z,92.90
2023-05-05T16:31:12.891Z,93.00
2023-05-05T16:33:45.310Z,92.80
2023-05-05T16:36:21.453Z,92.10
2023-05-05T16:38:52.998Z,92.20
2023-05-05T16:41:28.643Z,92.30
2023-05-05T16:43:59.310Z,92.40
2023-05-05T16:46:31.717Z,92.80
2023-05-05T16:49:02.495Z,92.50
2023-05-05T16:51:36.625Z,93.30
2023-05-05T16:54:07.018Z,93.20
2023-05-05T16:56:37.452Z,93.90
2023-05-05T16:59:08.209Z,92.80
2023-05-05T17:01:38.651Z,92.70
2023-05-05T17:04:10.308Z,93.10
2023-05-05T17:06:40.933Z,92.10
2023-05-05T17:09:14.375Z,92.50
2023-05-05T17:11:44.705Z,92.00
2023-05-05T17:14:15.140Z,93.30
2023-05-05T17:16:45.518Z,92.80
2023-05-05T17:19:15.999Z,92.20
2023-05-05T17:21:46.663Z,91.90
2023-05-05T17:24:18.416Z,92.00
2023-05-05T17:26:50.814Z,92.40
2023-05-05T17:29:25.041Z,92.00
2023-05-05T17:31:58.215Z,92.40
2023-05-05T17:34:28.685Z,92.40
2023-05-05T17:36:59.044Z,92.70
2023-05-05T17:39:30.353Z,92.40
2023-05-05T17:42:02.415Z,92.00
2023-05-05T17:44:34.362Z,92.40
2023-05-05T17:47:07.093Z,92.90
2023-05-05T17:49:40.776Z,92.30
2023-05-05T17:52:11.118Z,93.00
2023-05-05T17:54:41.462Z,92.40
2023-05-05T17:57:13.455Z,91.70
2023-05-05T17:59:44.268Z,92.90
2023-05-05T18:02:16.059Z,92.10
2023-05-05T18:04:48.280Z,92.10
2023-05-05T18:07:19.007Z,92.20
2023-05-05T18:09:51.866Z,92.70
2023-05-05T18:12:23.657Z,92.80
2023-05-05T18:15:00.261Z,93.00
2023-05-05T18:17:33.514Z,92.50
2023-05-05T18:20:07.358Z,92.70
2023-05-05T18:22:37.621Z,93.10
2023-05-05T18:25:10.222Z,92.90
2023-05-05T18:27:42.112Z,91.90
2023-05-05T18:30:16.780Z,92.60
2023-05-05T18:32:48.561Z,92.50
2023-05-05T18:35:22.381Z,92.90
2023-05-05T18:37:53.146Z,92.10
2023-05-05T18:40:24.939Z,93.60
2023-05-05T18:45:44.044Z,92.80
2023-05-05T18:48:16.137Z,92.40
2023-05-05T18:50:53.520Z,93.10
2023-05-05T18:54:05.414Z,92.60
2023-05-05T18:56:48.983Z,93.40
2023-05-05T18:59:20.865Z,92.60
2023-05-05T19:01:51.680Z,93.00
2023-05-05T19:05:12.630Z,92.00
2023-05-05T19:08:13.106Z,91.90
2023-05-05T19:11:09.358Z,92.70
2023-05-05T19:13:45.968Z,92.50
2023-05-05T19:19:55.767Z,93.50
2023-05-05T19:22:29.401Z,92.80
2023-05-05T19:25:03.204Z,92.60
2023-05-05T19:31:05.940Z,93.20
2023-05-05T19:33:40.362Z,92.80
2023-05-05T19:36:16.892Z,92.90
2023-05-05T19:39:19.559Z,93.80
2023-05-05T19:41:51.232Z,94.80
2023-05-05T19:44:25.103Z,93.40
2023-05-05T19:46:57.639Z,93.20
2023-05-05T19:49:34.905Z,92.70
2023-05-05T19:52:07.987Z,93.00
2023-05-05T19:54:39.081Z,92.80
2023-05-05T19:57:40.334Z,92.50
2023-05-05T20:00:15.789Z,92.30
2023-05-05T20:02:48.471Z,93.40
2023-05-05T20:05:21.883Z,92.80
2023-05-05T20:11:38.493Z,92.20
2023-05-05T20:18:16.289Z,92.50
2023-05-05T20:21:08.269Z,93.40
2023-05-05T20:29:59.494Z,93.40
2023-05-05T20:32:32.199Z,93.00
2023-05-05T20:35:04.373Z,92.90
2023-05-05T20:37:37.293Z,92.90
2023-05-05T20:40:09.734Z,93.90
2023-05-05T20:42:44.926Z,93.00
2023-05-05T20:45:17.752Z,92.40
2023-05-05T20:47:51.190Z,93.00
2023-05-05T20:53:21.112Z,93.70
2023-05-05T20:56:35.216Z,93.30
2023-05-05T20:59:24.238Z,93.50
2023-05-05T21:01:55.474Z,93.30
2023-05-05T21:04:27.729Z,93.60
2023-05-05T21:07:01.173Z,93.30
2023-05-05T21:09:35.414Z,93.60
2023-05-05T21:12:10.081Z,93.60
2023-05-05T21:14:51.255Z,93.30
2023-05-05T21:21:11.645Z,94.40
2023-05-05T21:23:44.835Z,93.80
2023-05-05T21:26:17.739Z,94.80
2023-05-05T21:31:55.560Z,94.10
2023-05-05T21:34:31.351Z,94.70
2023-05-05T21:37:02.970Z,94.80
2023-05-05T21:39:43.733Z,95.10
2023-05-05T21:42:24.893Z,95.00
2023-05-05T21:45:07.603Z,94.60
2023-05-05T21:48:05.362Z,94.70
2023-05-05T21:50:40.586Z,94.70
2023-05-05T21:53:13.627Z,94.00
2023-05-05T21:55:45.160Z,93.70
2023-05-05T21:58:23.937Z,94.60
2023-05-05T22:03:47.911Z,94.90
2023-05-05T22:06:20.563Z,94.90
2023-05-05T22:08:52.491Z,94.20
2023-05-05T22:11:23.687Z,95.30
2023-05-05T22:13:56.222Z,94.60
2023-05-05T22:16:26.961Z,94.10
2023-05-05T22:18:58.572Z,94.90
2023-05-05T22:21:31.990Z,95.30
2023-05-05T22:24:02.754Z,94.70
2023-05-05T22:26:33.642Z,94.70
2023-05-05T22:29:05.123Z,94.20
2023-05-05T22:31:37.785Z,93.80
2023-05-05T22:34:10.507Z,93.60
2023-05-05T22:36:41.657Z,93.70
2023-05-05T22:39:17.510Z,94.00
2023-05-05T22:41:49.740Z,94.40
2023-05-05T22:44:21.430Z,94.60
2023-05-05T22:46:54.455Z,95.50
2023-05-05T22:49:25.995Z,95.40
2023-05-05T22:51:56.779Z,95.30
2023-05-05T22:54:27.508Z,94.20
2023-05-05T22:56:58.173Z,93.70
2023-05-05T22:59:31.745Z,93.80
2023-05-05T23:02:05.265Z,94.10
2023-05-05T23:04:36.847Z,94.20
2023-05-05T23:07:08.494Z,94.10
2023-05-05T23:09:40.429Z,94.10
2023-05-05T23:12:11.155Z,94.20
2023-05-05T23:14:42.834Z,94.40
2023-05-05T23:17:14.730Z,94.30
2023-05-05T23:19:45.514Z,94.20
2023-05-05T23:22:16.365Z,93.60
2023-05-05T23:24:48.678Z,93.80
2023-05-05T23:27:19.307Z,93.70
2023-05-05T23:29:50.053Z,93.30
2023-05-05T23:32:22.817Z,93.10
2023-05-05T23:34:53.470Z,92.90
2023-05-05T23:37:25.102Z,93.00
2023-05-05T23:39:56.016Z,92.50
2023-05-05T23:42:45.112Z,91.90
2023-05-05T23:45:35.762Z,92.00
2023-05-05T23:48:06.973Z,91.40
2023-05-05T23:50:37.667Z,91.60
2023-05-05T23:53:08.334Z,91.80
2023-05-05T23:55:40.022Z,91.30
2023-05-05T23:58:11.108Z,91.00
